Strona główna
METAR-TAF:

METAR-TAF

Lotnisko :

Port lotniczy Comalapa

Salwador, Salwador

Szerokość geograficzna: 13-26N, Długość geograficzna: 089-03W, wysokość: 25 m

Aktualna obserwacja pogody

Raport powstał 36 minut temu, godzina 06:50 UTC
Wiatr 5 kt od wschód, zmienny między północny wschód i południowo-południowy wschód
Temperatura 28°C
Wilgotność 42%
Ciśnienie 1014 hPa
Widzialność 10 km lub więcej
Brak chmur poniżej 1500 m i brak chmur cumulonimbus

METAR: MSLP 220650Z 10005KT 050V160 CAVOK 28/14 Q1014 A2994 NOSIG

czas: 01:26 (07:26 UTC)

Prognoza

Raport powstał 4 godziny i 1 minut temu, godzina 03:25 UTC
Prognoza ważna od 22 godzina 06 UTC do 23 godzina 06 UTC
Wiatr 12 kt od północno-północny wschód w porywach dochodzący do 25 kt
Widzialność 10 km lub więcej
Brak chmur poniżej 1500 m i brak chmur cumulonimbus

TAF: MSLP 220325Z 2206/2306 03012G25KT CAVOK TX35/2218Z TN25/2212Z

Obserwacja i prognoza pogody dla ponad 4000 lotnisk (raport METAR i TAF).

Dostępne stacje oznaczono żółtymi i czerwonymi punktami na mapie.

Najedź kursorem aby zobaczyć nazwę stacji.

Kliknij aby zobaczyć obserwacje i prognozy pogody.

Aby zmienić mapę: kliknij na zielony przycisk z czarnym krzyżykiem, aby powiększyć; na zielony przycisk z myślnikiem, aby pomniejszyć; na zielone strzałki, aby przejść do map sąsiednich.


METAR-TAF: